Time;durP1;ratioP1;P1;durP2;ratioP2;P2;SDS_P1;SDS_P2;PMS_P1;PMS_P2;Temp;Humidity;BMP_temperature;BMP_pressure;BME280_temperature;BME280_humidity;BME280_pressure;Samples;Min_cycle;Max_cycle;Signal;HPM_P1;HPM_P2
2021/10/13 00:00:11;;;;;;;4.00;3.70;;;14.10;63.20;;;;;;5044332;28;20789;-46
2021/10/13 00:02:37;;;;;;;4.43;4.03;;;14.10;63.30;;;;;;5044183;28;20184;-45
2021/10/13 00:05:04;;;;;;;4.83;4.30;;;14.10;63.00;;;;;;5047649;28;20957;-44
2021/10/13 00:07:30;;;;;;;5.57;4.70;;;14.10;62.80;;;;;;5046926;28;20569;-50
2021/10/13 00:09:57;;;;;;;5.20;4.40;;;14.10;62.70;;;;;;5047026;28;20448;-45
2021/10/13 00:12:23;;;;;;;5.43;4.93;;;14.10;62.50;;;;;;5050220;28;21176;-48
2021/10/13 00:14:49;;;;;;;6.40;4.87;;;14.10;62.20;;;;;;5048145;28;20442;-49
2021/10/13 00:17:15;;;;;;;5.80;5.20;;;14.10;62.30;;;;;;5046407;28;20495;-45
2021/10/13 00:19:40;;;;;;;6.73;5.10;;;14.00;62.40;;;;;;5048663;28;20651;-48
2021/10/13 00:22:06;;;;;;;5.07;4.57;;;14.00;62.50;;;;;;5049023;28;20200;-45
2021/10/13 00:24:31;;;;;;;5.33;4.80;;;13.90;62.50;;;;;;5048087;28;20193;-50
2021/10/13 00:26:57;;;;;;;6.57;5.80;;;13.70;62.70;;;;;;5046258;28;20200;-49
2021/10/13 00:29:23;;;;;;;6.43;5.83;;;13.70;62.90;;;;;;5043304;28;20223;-46
2021/10/13 00:31:48;;;;;;;6.70;5.83;;;13.60;63.00;;;;;;5042282;28;20193;-48
2021/10/13 00:34:15;;;;;;;5.70;5.13;;;13.60;63.00;;;;;;5045623;28;20224;-50
2021/10/13 00:36:41;;;;;;;6.70;5.50;;;13.70;63.00;;;;;;5047237;28;20221;-49
2021/10/13 00:39:07;;;;;;;6.63;5.13;;;13.70;62.90;;;;;;5047659;28;20461;-48
2021/10/13 00:41:32;;;;;;;6.97;5.70;;;13.70;62.90;;;;;;5050061;28;20207;-48
2021/10/13 00:43:58;;;;;;;6.40;5.27;;;13.60;63.10;;;;;;5048042;28;20349;-48
2021/10/13 00:46:24;;;;;;;7.33;5.50;;;13.60;63.50;;;;;;5048277;28;20534;-48
2021/10/13 00:48:49;;;;;;;6.20;4.80;;;13.60;63.50;;;;;;5049019;28;20366;-48
2021/10/13 00:51:15;;;;;;;6.60;5.97;;;13.60;63.20;;;;;;5046589;28;20258;-48
2021/10/13 00:53:41;;;;;;;6.30;5.70;;;13.60;63.70;;;;;;5046966;28;20220;-46
2021/10/13 00:56:07;;;;;;;7.63;6.10;;;13.60;62.80;;;;;;5044242;28;20957;-49
2021/10/13 00:58:32;;;;;;;10.67;5.77;;;13.60;62.70;;;;;;5048845;28;21209;-48
2021/10/13 01:01:00;;;;;;;7.20;5.90;;;13.60;62.60;;;;;;5043670;28;20192;-49
2021/10/13 01:03:36;;;;;;;7.00;5.90;;;13.60;62.50;;;;;;5043591;28;20196;-50
2021/10/13 01:06:11;;;;;;;6.83;6.23;;;13.60;62.70;;;;;;5044363;28;20454;-49
2021/10/13 01:08:51;;;;;;;7.83;6.80;;;13.60;63.00;;;;;;5041676;28;20456;-44
2021/10/13 01:11:23;;;;;;;7.10;5.97;;;13.60;63.10;;;;;;5042346;28;20475;-44
2021/10/13 01:14:16;;;;;;;6.47;5.60;;;13.60;63.10;;;;;;5046951;28;20934;-44
2021/10/13 01:17:23;;;;;;;7.30;6.37;;;13.70;63.50;;;;;;5054034;28;20533;-47
2021/10/13 01:20:08;;;;;;;6.37;5.60;;;13.70;63.60;;;;;;5048008;28;20545;-44
2021/10/13 01:22:57;;;;;;;6.63;5.70;;;13.70;63.60;;;;;;5046954;28;20446;-44
2021/10/13 01:25:45;;;;;;;8.90;6.97;;;13.70;63.70;;;;;;5048443;28;20448;-45
2021/10/13 01:28:13;;;;;;;7.93;6.87;;;13.70;63.60;;;;;;5047853;28;20457;-48
2021/10/13 01:31:08;;;;;;;6.73;6.07;;;13.60;63.80;;;;;;5045173;28;20450;-46
2021/10/13 01:33:36;;;;;;;7.40;6.40;;;13.70;64.10;;;;;;5045299;28;20457;-45
2021/10/13 01:36:08;;;;;;;7.27;6.40;;;13.70;64.00;;;;;;5042858;28;20467;-47
2021/10/13 01:38:41;;;;;;;7.63;5.93;;;13.70;63.90;;;;;;5052794;28;20431;-44
2021/10/13 01:41:10;;;;;;;9.23;6.50;;;13.70;63.70;;;;;;5050937;28;20811;-45
2021/10/13 01:43:38;;;;;;;10.20;6.27;;;13.70;63.60;;;;;;5052872;28;20452;-45
2021/10/13 01:46:05;;;;;;;12.23;6.90;;;13.80;63.60;;;;;;5049385;28;20450;-46
2021/10/13 01:48:32;;;;;;;9.90;6.97;;;13.80;63.60;;;;;;5046901;28;20473;-47
2021/10/13 01:50:59;;;;;;;9.20;7.20;;;13.80;63.70;;;;;;5047252;28;20502;-44
2021/10/13 01:53:25;;;;;;;8.47;6.87;;;13.80;63.60;;;;;;5049608;28;20892;-44
2021/10/13 01:55:53;;;;;;;8.07;6.60;;;13.80;63.50;;;;;;5049586;28;21002;-45
2021/10/13 01:58:20;;;;;;;8.27;6.53;;;13.80;63.40;;;;;;5049342;28;20444;-45
2021/10/13 02:00:48;;;;;;;7.53;6.83;;;13.80;63.50;;;;;;5049094;28;20437;-45
2021/10/13 02:03:14;;;;;;;8.17;6.37;;;13.80;63.50;;;;;;5050666;28;22510;-48
2021/10/13 02:05:40;;;;;;;7.93;7.10;;;13.80;63.50;;;;;;5050083;28;20447;-46
2021/10/13 02:08:07;;;;;;;7.33;6.50;;;13.80;63.50;;;;;;5045404;28;20913;-44
2021/10/13 02:10:34;;;;;;;8.63;6.67;;;13.80;63.50;;;;;;5047234;28;20460;-45
2021/10/13 02:13:01;;;;;;;10.37;6.60;;;13.80;63.60;;;;;;5051604;28;20438;-46
2021/10/13 02:15:28;;;;;;;9.50;7.13;;;13.80;63.50;;;;;;5051131;28;20443;-44
2021/10/13 02:17:57;;;;;;;9.33;7.00;;;13.80;63.50;;;;;;5051167;28;20478;-44
2021/10/13 02:20:24;;;;;;;9.27;7.07;;;13.80;63.50;;;;;;5049588;28;20446;-46
2021/10/13 02:22:54;;;;;;;9.73;6.80;;;13.80;63.50;;;;;;5046088;28;20446;-45
2021/10/13 02:25:21;;;;;;;9.93;7.20;;;13.80;63.50;;;;;;5044702;28;20533;-44
2021/10/13 02:28:25;;;;;;;7.73;6.93;;;13.70;63.40;;;;;;5053171;28;20443;-44
2021/10/13 02:30:51;;;;;;;9.63;7.40;;;13.70;63.60;;;;;;4995535;28;21025;-46
2021/10/13 02:33:17;;;;;;;11.50;7.67;;;13.70;63.70;;;;;;5050419;28;20521;-46
2021/10/13 02:35:43;;;;;;;9.00;7.53;;;13.70;63.60;;;;;;5043837;28;20530;-44
2021/10/13 02:38:09;;;;;;;7.90;7.10;;;13.70;63.70;;;;;;5052366;28;20199;-45
2021/10/13 02:40:35;;;;;;;10.20;7.70;;;13.70;63.60;;;;;;5048312;28;20198;-46
2021/10/13 02:43:01;;;;;;;11.07;8.10;;;13.70;63.60;;;;;;5051339;28;20929;-45
2021/10/13 02:45:30;;;;;;;10.03;7.07;;;13.70;63.50;;;;;;5048205;28;20211;-45
2021/10/13 02:48:00;;;;;;;7.97;6.63;;;13.70;63.50;;;;;;5053276;28;20430;-46
2021/10/13 02:50:47;;;;;;;7.70;6.70;;;13.70;63.40;;;;;;5050633;28;20457;-46
2021/10/13 02:53:19;;;;;;;9.37;8.20;;;13.70;63.50;;;;;;5048636;28;20439;-44
2021/10/13 02:55:58;;;;;;;9.03;7.53;;;13.70;63.80;;;;;;5046211;28;20651;-44
2021/10/13 02:58:48;;;;;;;8.73;7.77;;;13.70;63.70;;;;;;5040749;28;20450;-45
2021/10/13 03:01:19;;;;;;;10.23;8.40;;;13.60;63.90;;;;;;5043982;28;20456;-46
2021/10/13 03:03:49;;;;;;;8.43;7.50;;;13.70;63.80;;;;;;5047684;28;20439;-44
2021/10/13 03:06:16;;;;;;;9.23;7.20;;;13.70;63.60;;;;;;5048453;28;20439;-44
2021/10/13 03:08:46;;;;;;;9.00;7.13;;;13.80;63.50;;;;;;5047703;28;20500;-46
2021/10/13 03:11:14;;;;;;;13.00;7.70;;;13.80;63.40;;;;;;5048138;28;20566;-45
2021/10/13 03:13:44;;;;;;;9.80;8.00;;;13.80;63.40;;;;;;5047668;28;20803;-44
2021/10/13 03:16:11;;;;;;;9.83;7.63;;;13.80;63.40;;;;;;5051513;28;20977;-44
2021/10/13 03:18:39;;;;;;;10.67;7.13;;;13.70;63.40;;;;;;5050665;28;20439;-46
2021/10/13 03:21:06;;;;;;;8.80;7.10;;;13.70;63.70;;;;;;5050518;28;20811;-44
2021/10/13 03:23:32;;;;;;;8.87;7.97;;;13.70;63.70;;;;;;5047200;28;20482;-47
2021/10/13 03:26:08;;;;;;;9.97;8.37;;;13.70;63.50;;;;;;5049962;28;20466;-45
2021/10/13 03:28:35;;;;;;;9.10;8.17;;;13.80;63.40;;;;;;5046520;28;20442;-44
2021/10/13 03:31:00;;;;;;;8.30;7.10;;;13.80;63.20;;;;;;5045593;28;20919;-46
2021/10/13 03:33:26;;;;;;;9.90;8.90;;;13.80;63.00;;;;;;5043659;28;20446;-45
2021/10/13 03:35:52;;;;;;;9.23;7.90;;;13.80;62.90;;;;;;5045328;28;20193;-45
2021/10/13 03:38:18;;;;;;;9.00;7.97;;;13.70;62.90;;;;;;5050699;28;20196;-46
2021/10/13 03:40:43;;;;;;;9.90;8.03;;;13.70;62.90;;;;;;5047413;28;20242;-46
2021/10/13 03:43:10;;;;;;;11.83;8.73;;;13.80;63.20;;;;;;5051909;28;20208;-44
2021/10/13 03:45:35;;;;;;;11.80;8.53;;;13.70;63.20;;;;;;5049778;28;20203;-44
2021/10/13 03:48:02;;;;;;;10.63;8.00;;;13.80;63.20;;;;;;5048053;28;20811;-46
2021/10/13 03:50:27;;;;;;;10.27;8.80;;;13.70;63.00;;;;;;5049700;28;20279;-44
2021/10/13 03:52:53;;;;;;;11.40;9.13;;;13.70;63.10;;;;;;5049143;28;21077;-45
2021/10/13 03:55:20;;;;;;;11.40;8.33;;;13.70;63.00;;;;;;5045917;28;20189;-44
2021/10/13 03:57:46;;;;;;;13.03;9.60;;;13.70;62.80;;;;;;5045855;28;20603;-45
2021/10/13 04:00:14;;;;;;;12.00;10.37;;;13.70;62.90;;;;;;5047368;28;20564;-47
2021/10/13 04:02:40;;;;;;;10.20;9.10;;;13.70;62.70;;;;;;5045629;28;20454;-44
2021/10/13 04:05:08;;;;;;;9.70;8.40;;;13.70;63.30;;;;;;5048534;28;20446;-45
2021/10/13 04:07:34;;;;;;;10.17;9.17;;;13.70;62.50;;;;;;5049116;28;20231;-44
2021/10/13 04:10:00;;;;;;;13.50;8.80;;;13.70;62.70;;;;;;5047629;28;20475;-44
2021/10/13 04:12:28;;;;;;;11.70;8.03;;;13.70;62.70;;;;;;5048151;28;20195;-50
2021/10/13 04:14:53;;;;;;;11.20;8.97;;;13.70;62.80;;;;;;5041165;28;20467;-45
2021/10/13 04:17:19;;;;;;;12.17;9.23;;;13.70;63.00;;;;;;5045834;28;20480;-47
2021/10/13 04:19:45;;;;;;;11.03;8.77;;;13.60;62.80;;;;;;5049723;28;20196;-49
2021/10/13 04:22:11;;;;;;;13.90;10.73;;;13.60;62.60;;;;;;5044990;28;20189;-48
2021/10/13 04:24:36;;;;;;;11.73;9.70;;;13.60;62.50;;;;;;5041673;28;20443;-45
2021/10/13 04:27:02;;;;;;;9.90;8.37;;;13.60;62.70;;;;;;5043578;28;20214;-45
2021/10/13 04:29:28;;;;;;;13.53;8.53;;;13.60;62.90;;;;;;5040618;28;20553;-48
2021/10/13 04:31:53;;;;;;;12.23;9.73;;;13.60;62.80;;;;;;5040850;28;20649;-49
2021/10/13 04:34:19;;;;;;;10.70;9.33;;;13.50;62.70;;;;;;5042281;28;20666;-45
2021/10/13 04:36:44;;;;;;;12.10;8.90;;;13.50;62.70;;;;;;5044503;28;20667;-44
2021/10/13 04:39:10;;;;;;;15.43;9.60;;;13.50;62.70;;;;;;5043567;28;20202;-45
2021/10/13 04:41:36;;;;;;;12.97;10.50;;;13.50;62.80;;;;;;5045379;28;20196;-46
2021/10/13 04:44:02;;;;;;;9.70;8.70;;;13.50;62.90;;;;;;5047729;28;20208;-47
2021/10/13 04:46:27;;;;;;;11.80;10.00;;;13.50;62.90;;;;;;5048441;28;20553;-46
2021/10/13 04:48:53;;;;;;;12.80;9.50;;;13.50;63.10;;;;;;5044502;28;20240;-45
2021/10/13 04:51:18;;;;;;;12.80;10.00;;;13.50;63.30;;;;;;5045498;28;20694;-47
2021/10/13 04:53:44;;;;;;;13.13;9.90;;;13.50;63.50;;;;;;5047586;28;20656;-46
2021/10/13 04:56:10;;;;;;;12.23;9.53;;;13.50;63.40;;;;;;5047403;28;20216;-45
2021/10/13 04:58:35;;;;;;;10.73;8.90;;;13.50;63.40;;;;;;5044445;28;20201;-44
2021/10/13 05:01:01;;;;;;;11.33;9.53;;;13.50;63.40;;;;;;5044976;28;20203;-44
2021/10/13 05:03:27;;;;;;;11.10;9.87;;;13.50;63.40;;;;;;5045452;28;20668;-47
2021/10/13 05:05:52;;;;;;;12.50;10.00;;;13.50;63.40;;;;;;5048590;28;20196;-46
2021/10/13 05:08:18;;;;;;;14.47;9.50;;;13.50;63.40;;;;;;5042196;28;20189;-45
2021/10/13 05:10:44;;;;;;;13.90;10.40;;;13.50;63.40;;;;;;5048879;28;20196;-44
2021/10/13 05:13:09;;;;;;;15.33;8.87;;;13.50;63.30;;;;;;5044778;28;20551;-46
2021/10/13 05:15:35;;;;;;;21.73;7.47;;;13.50;63.30;;;;;;5048387;28;20195;-46
2021/10/13 05:18:01;;;;;;;12.70;9.70;;;13.60;63.80;;;;;;5042746;28;20623;-46
2021/10/13 05:20:27;;;;;;;15.10;9.40;;;13.70;64.60;;;;;;5042411;28;20461;-43
2021/10/13 05:22:52;;;;;;;16.97;10.70;;;13.80;64.10;;;;;;5042608;28;20196;-45
2021/10/13 05:25:18;;;;;;;13.77;9.80;;;13.80;64.10;;;;;;5048879;28;20228;-48
2021/10/13 05:27:43;;;;;;;13.60;10.60;;;13.80;63.10;;;;;;5050090;28;20189;-48
2021/10/13 05:30:09;;;;;;;12.83;10.80;;;13.90;62.90;;;;;;5043636;28;20305;-47
2021/10/13 05:32:35;;;;;;;13.13;9.70;;;13.90;62.50;;;;;;5042536;28;20648;-46
2021/10/13 05:35:01;;;;;;;15.03;10.37;;;13.90;62.00;;;;;;5047664;28;20197;-43
2021/10/13 05:37:26;;;;;;;15.60;11.33;;;13.90;61.80;;;;;;5044321;28;20701;-46
2021/10/13 05:39:52;;;;;;;14.53;10.70;;;14.00;61.60;;;;;;5049518;28;20200;-44
2021/10/13 05:42:17;;;;;;;13.00;10.77;;;14.00;61.40;;;;;;5050668;28;20188;-48
2021/10/13 05:44:43;;;;;;;13.97;11.40;;;14.00;61.60;;;;;;5049798;28;20355;-43
2021/10/13 05:47:09;;;;;;;16.80;12.20;;;14.10;61.70;;;;;;5049720;28;20580;-44
2021/10/13 05:49:37;;;;;;;13.87;10.57;;;14.10;61.30;;;;;;5049459;28;20657;-49
2021/10/13 05:52:04;;;;;;;21.23;17.90;;;14.20;61.30;;;;;;5050602;28;20604;-48
2021/10/13 05:54:29;;;;;;;14.63;12.60;;;14.30;61.10;;;;;;5048377;28;20438;-49
2021/10/13 05:56:55;;;;;;;15.73;12.60;;;14.30;60.40;;;;;;5050328;28;20494;-44
2021/10/13 05:59:20;;;;;;;18.13;12.20;;;14.30;60.20;;;;;;5045998;28;20192;-43
2021/10/13 06:01:46;;;;;;;17.03;11.60;;;14.30;60.20;;;;;;5053163;28;20197;-43
2021/10/13 06:04:12;;;;;;;14.13;11.33;;;14.40;60.20;;;;;;5053160;28;20677;-48
2021/10/13 06:06:37;;;;;;;14.67;11.70;;;14.40;60.10;;;;;;5048555;28;20197;-45
2021/10/13 06:09:03;;;;;;;14.27;11.20;;;14.40;60.10;;;;;;5052308;28;20193;-44
2021/10/13 06:11:28;;;;;;;12.70;9.53;;;14.40;60.30;;;;;;5053636;28;20202;-44
2021/10/13 06:13:54;;;;;;;16.27;12.13;;;14.40;60.50;;;;;;5049252;28;20653;-46
2021/10/13 06:16:21;;;;;;;14.03;11.33;;;14.40;60.50;;;;;;5054315;28;20234;-47
2021/10/13 06:18:48;;;;;;;15.57;11.70;;;14.40;60.20;;;;;;5053130;28;20200;-44
2021/10/13 06:21:14;;;;;;;16.33;12.60;;;14.40;60.00;;;;;;5053055;28;20784;-44
2021/10/13 06:23:39;;;;;;;16.63;11.63;;;14.30;60.00;;;;;;5053135;28;20443;-45
2021/10/13 06:26:05;;;;;;;16.23;11.73;;;14.10;60.20;;;;;;5050966;28;20208;-46
2021/10/13 06:28:31;;;;;;;14.27;11.70;;;14.10;60.70;;;;;;5053800;28;20264;-46
2021/10/13 06:30:57;;;;;;;18.77;13.10;;;14.00;61.20;;;;;;5052104;28;20196;-44
2021/10/13 06:33:23;;;;;;;17.33;13.57;;;14.00;61.10;;;;;;5053772;28;20442;-49
2021/10/13 06:35:49;;;;;;;21.23;13.40;;;14.00;61.20;;;;;;5052626;28;20196;-49
2021/10/13 06:38:15;;;;;;;21.10;15.47;;;14.00;61.30;;;;;;5052802;28;20993;-48
2021/10/13 06:40:41;;;;;;;17.17;13.53;;;14.00;61.20;;;;;;5052897;28;20515;-49
2021/10/13 06:43:09;;;;;;;18.93;13.80;;;14.00;61.40;;;;;;5053185;28;20208;-48
2021/10/13 06:45:36;;;;;;;17.50;13.53;;;14.00;61.40;;;;;;5048710;28;20196;-46
2021/10/13 06:48:03;;;;;;;17.17;12.97;;;14.10;61.30;;;;;;5052658;28;20443;-44
2021/10/13 06:50:29;;;;;;;18.50;12.77;;;14.10;61.20;;;;;;5052759;28;20497;-48
2021/10/13 06:52:54;;;;;;;16.67;12.93;;;14.10;61.20;;;;;;5053620;28;20419;-49
2021/10/13 06:55:20;;;;;;;14.90;11.53;;;14.20;61.20;;;;;;5050331;28;20431;-44
2021/10/13 06:57:46;;;;;;;15.03;11.27;;;14.20;61.00;;;;;;5052813;28;20234;-44
2021/10/13 07:00:12;;;;;;;14.93;12.17;;;14.20;60.80;;;;;;5052322;28;20310;-45
2021/10/13 07:02:38;;;;;;;14.83;12.10;;;14.30;60.90;;;;;;5052989;28;20687;-44
2021/10/13 07:05:04;;;;;;;14.33;10.37;;;14.40;60.60;;;;;;5052482;28;20427;-46
2021/10/13 07:07:29;;;;;;;15.77;11.70;;;14.40;60.00;;;;;;5052998;28;20195;-49
2021/10/13 07:09:55;;;;;;;18.50;11.20;;;14.40;59.80;;;;;;5051985;28;20454;-48
2021/10/13 07:12:21;;;;;;;14.87;11.10;;;14.40;60.00;;;;;;5052217;28;20216;-49
2021/10/13 07:14:46;;;;;;;13.07;10.80;;;14.40;60.10;;;;;;5052281;28;20211;-44
2021/10/13 07:17:12;;;;;;;18.00;11.60;;;14.40;60.30;;;;;;5052798;28;20243;-45
2021/10/13 07:19:37;;;;;;;13.60;11.27;;;14.50;60.30;;;;;;5051475;28;20659;-48
2021/10/13 07:22:03;;;;;;;17.60;11.37;;;14.50;60.00;;;;;;5045891;28;20196;-48
2021/10/13 07:24:29;;;;;;;21.63;13.23;;;14.60;59.80;;;;;;5051115;28;20197;-47
2021/10/13 07:26:55;;;;;;;17.27;11.40;;;14.70;59.80;;;;;;5048884;28;21002;-49
2021/10/13 07:29:20;;;;;;;16.20;12.13;;;14.70;59.50;;;;;;5052335;28;20215;-49
2021/10/13 07:31:46;;;;;;;14.43;11.43;;;14.70;59.20;;;;;;5052761;28;20188;-48
2021/10/13 07:34:12;;;;;;;12.40;10.37;;;14.70;59.60;;;;;;5051297;28;20231;-46
2021/10/13 07:36:38;;;;;;;17.63;9.50;;;14.80;59.70;;;;;;5052594;28;20230;-48
2021/10/13 07:39:05;;;;;;;13.50;9.67;;;14.80;59.30;;;;;;5051266;28;20205;-48
2021/10/13 07:41:30;;;;;;;17.13;11.17;;;14.80;59.40;;;;;;5049739;28;20431;-45
2021/10/13 07:43:56;;;;;;;15.57;9.90;;;14.90;59.50;;;;;;5041599;28;20467;-48
2021/10/13 07:46:23;;;;;;;18.50;10.90;;;15.00;59.70;;;;;;5051108;28;20563;-49
2021/10/13 07:48:49;;;;;;;14.00;10.37;;;15.00;59.60;;;;;;5049619;28;20235;-45
2021/10/13 07:51:15;;;;;;;9.90;7.80;;;15.10;59.60;;;;;;5051950;28;20474;-48
2021/10/13 07:53:40;;;;;;;12.03;9.60;;;15.20;59.50;;;;;;5050827;28;20459;-45
2021/10/13 07:56:06;;;;;;;13.73;9.43;;;15.30;59.50;;;;;;5047817;28;20189;-49
2021/10/13 07:58:32;;;;;;;12.70;9.30;;;15.30;58.80;;;;;;5051441;28;20215;-48
2021/10/13 08:00:57;;;;;;;14.47;9.73;;;15.30;58.60;;;;;;5051178;28;20431;-49
2021/10/13 08:03:23;;;;;;;11.80;9.20;;;15.40;58.80;;;;;;5051743;28;20642;-47
2021/10/13 08:05:49;;;;;;;11.40;8.37;;;15.50;58.90;;;;;;5050728;28;20192;-45
2021/10/13 08:08:14;;;;;;;12.60;8.50;;;15.60;58.70;;;;;;5051289;28;20663;-49
2021/10/13 08:10:40;;;;;;;10.80;8.60;;;15.70;58.80;;;;;;5050923;28;20220;-50
2021/10/13 08:13:05;;;;;;;11.10;8.20;;;15.70;58.60;;;;;;5050338;28;20197;-49
2021/10/13 08:15:31;;;;;;;14.10;8.90;;;15.70;58.60;;;;;;5049673;28;20192;-47
2021/10/13 08:17:56;;;;;;;13.07;9.43;;;15.70;58.40;;;;;;5050712;28;20280;-50
2021/10/13 08:20:22;;;;;;;13.70;9.40;;;15.70;58.10;;;;;;5051269;28;20189;-47
2021/10/13 08:22:48;;;;;;;9.70;8.20;;;15.60;57.90;;;;;;5051101;28;20595;-48
2021/10/13 08:25:15;;;;;;;9.27;8.30;;;15.60;58.20;;;;;;5051192;28;20201;-48
2021/10/13 08:27:41;;;;;;;10.43;8.70;;;15.70;58.30;;;;;;5051377;28;20434;-46
2021/10/13 08:30:07;;;;;;;10.80;8.90;;;15.60;58.30;;;;;;5051353;28;20446;-48
2021/10/13 08:32:33;;;;;;;13.57;9.00;;;15.50;58.60;;;;;;5052138;28;20192;-49
2021/10/13 08:34:59;;;;;;;13.73;9.20;;;15.60;58.60;;;;;;5050163;28;20443;-49
2021/10/13 08:37:24;;;;;;;13.53;9.07;;;15.50;58.70;;;;;;5050620;28;20228;-48
2021/10/13 08:39:50;;;;;;;10.97;9.87;;;15.60;58.30;;;;;;5050771;28;20822;-47
2021/10/13 08:42:26;;;;;;;10.33;8.77;;;15.60;58.20;;;;;;5051843;28;20188;-48
2021/10/13 08:44:53;;;;;;;12.83;8.63;;;15.90;58.50;;;;;;5038155;28;20536;-47
2021/10/13 08:47:19;;;;;;;12.37;9.33;;;15.90;57.80;;;;;;5051024;28;20439;-50
2021/10/13 08:49:46;;;;;;;13.17;9.10;;;15.80;57.30;;;;;;5050234;28;20467;-47
2021/10/13 08:52:13;;;;;;;11.77;10.07;;;15.90;58.10;;;;;;5051282;28;20223;-44
2021/10/13 08:54:40;;;;;;;12.53;9.50;;;16.00;57.60;;;;;;5049890;28;20522;-45
2021/10/13 08:57:17;;;;;;;12.63;9.00;;;15.90;56.90;;;;;;5050022;28;20478;-49
2021/10/13 08:59:47;;;;;;;14.80;10.10;;;16.00;57.20;;;;;;5050335;28;20516;-47
2021/10/13 09:02:13;;;;;;;11.17;9.77;;;16.20;57.70;;;;;;5049696;28;20451;-44
2021/10/13 09:04:39;;;;;;;16.37;11.17;;;16.20;57.60;;;;;;5046868;28;20454;-45
2021/10/13 09:07:05;;;;;;;9.93;8.80;;;16.40;57.80;;;;;;5049075;28;20196;-43
2021/10/13 09:09:31;;;;;;;9.60;8.60;;;16.40;57.40;;;;;;5034665;28;20192;-48
2021/10/13 09:11:58;;;;;;;13.03;9.37;;;16.60;57.50;;;;;;5047408;28;20866;-48
2021/10/13 09:14:29;;;;;;;9.10;8.10;;;16.70;56.90;;;;;;5040114;28;20432;-46
2021/10/13 09:17:02;;;;;;;9.13;7.80;;;16.70;56.50;;;;;;5037845;28;20482;-47
2021/10/13 09:19:36;;;;;;;8.10;7.27;;;16.70;57.00;;;;;;5027024;28;20447;-50
2021/10/13 09:22:05;;;;;;;8.63;7.50;;;16.70;56.80;;;;;;5047239;28;20478;-44
2021/10/13 09:24:33;;;;;;;10.30;7.77;;;16.80;57.10;;;;;;5048165;28;20423;-44
2021/10/13 09:27:16;;;;;;;8.63;6.50;;;16.70;57.10;;;;;;5049112;28;20435;-47
2021/10/13 09:29:43;;;;;;;8.70;7.57;;;16.70;57.40;;;;;;5048621;28;20538;-47
2021/10/13 09:32:08;;;;;;;9.40;7.30;;;16.70;57.40;;;;;;5047972;28;20794;-46
2021/10/13 09:34:34;;;;;;;8.30;6.70;;;16.70;57.10;;;;;;5047117;28;20488;-43
2021/10/13 09:37:00;;;;;;;10.10;8.40;;;16.80;57.20;;;;;;5051955;28;20235;-44
2021/10/13 09:39:28;;;;;;;11.20;7.97;;;16.80;57.10;;;;;;5050222;28;20284;-44
2021/10/13 09:42:01;;;;;;;9.00;7.43;;;16.80;57.40;;;;;;5053270;28;20200;-45
2021/10/13 09:44:31;;;;;;;8.40;7.07;;;16.90;56.70;;;;;;5050566;28;20496;-47
2021/10/13 09:47:00;;;;;;;11.77;6.83;;;17.00;56.90;;;;;;5046849;28;20465;-47
2021/10/13 09:49:31;;;;;;;13.30;6.87;;;16.80;55.50;;;;;;5051564;28;21016;-47
2021/10/13 09:52:02;;;;;;;7.50;6.10;;;17.00;56.20;;;;;;5048136;28;20431;-48
2021/10/13 09:54:28;;;;;;;6.67;5.73;;;16.90;55.60;;;;;;5051858;28;20514;-47
2021/10/13 09:56:53;;;;;;;9.67;6.67;;;16.90;54.60;;;;;;5048791;28;20574;-46
2021/10/13 09:59:19;;;;;;;9.37;5.57;;;17.10;54.40;;;;;;5052699;28;20208;-49
2021/10/13 10:01:52;;;;;;;10.57;7.30;;;17.20;54.90;;;;;;5052215;28;20283;-48
2021/10/13 10:04:22;;;;;;;10.97;6.90;;;17.30;55.20;;;;;;5050039;28;20196;-45
2021/10/13 10:07:05;;;;;;;11.07;7.30;;;17.40;53.60;;;;;;5051607;28;20435;-44
2021/10/13 10:09:31;;;;;;;11.10;8.03;;;17.40;54.30;;;;;;5050471;28;20435;-47
2021/10/13 10:12:08;;;;;;;12.17;8.33;;;17.40;53.10;;;;;;5052719;28;20446;-48
2021/10/13 10:14:34;;;;;;;12.20;8.57;;;17.30;53.50;;;;;;5050863;28;20239;-48
2021/10/13 10:17:03;;;;;;;13.97;9.10;;;17.40;54.10;;;;;;5052443;28;20544;-45
2021/10/13 10:19:36;;;;;;;12.97;9.30;;;17.40;54.40;;;;;;5049383;28;20522;-47
2021/10/13 10:22:14;;;;;;;12.10;9.27;;;17.40;54.40;;;;;;5051503;28;20458;-44
2021/10/13 10:25:05;;;;;;;12.30;8.07;;;17.30;53.70;;;;;;5049658;28;20442;-47
2021/10/13 10:27:33;;;;;;;13.20;9.27;;;17.30;53.80;;;;;;5052358;28;20796;-44
2021/10/13 10:30:19;;;;;;;13.70;9.20;;;17.10;54.00;;;;;;5051350;28;20488;-45
2021/10/13 10:32:46;;;;;;;12.20;8.97;;;17.10;53.90;;;;;;5047906;28;20546;-45
2021/10/13 10:35:16;;;;;;;14.07;8.73;;;17.00;54.60;;;;;;5051505;28;20443;-44
2021/10/13 10:37:42;;;;;;;15.60;10.47;;;17.00;55.30;;;;;;5050806;28;20602;-45
2021/10/13 10:40:19;;;;;;;9.03;7.00;;;17.00;55.70;;;;;;5050296;28;20442;-45
2021/10/13 10:42:51;;;;;;;13.27;9.10;;;17.10;55.60;;;;;;5054546;28;20275;-46
2021/10/13 10:45:18;;;;;;;14.23;9.30;;;17.20;55.80;;;;;;5051049;28;20522;-44
2021/10/13 10:47:48;;;;;;;12.40;9.27;;;17.20;55.80;;;;;;5047743;28;20471;-45
2021/10/13 10:50:14;;;;;;;11.53;8.40;;;17.30;54.90;;;;;;5052166;28;20508;-44
2021/10/13 10:53:06;;;;;;;12.57;10.30;;;17.20;55.00;;;;;;5052104;28;20942;-44
2021/10/13 10:55:36;;;;;;;12.07;9.80;;;17.20;55.20;;;;;;5049476;28;20431;-44
2021/10/13 10:58:16;;;;;;;14.13;8.77;;;17.10;53.90;;;;;;5052063;28;20482;-46
2021/10/13 11:00:43;;;;;;;12.23;7.90;;;17.20;55.50;;;;;;5051791;28;20454;-44
2021/10/13 11:03:25;;;;;;;11.60;8.43;;;17.30;54.70;;;;;;5051679;28;20550;-46
2021/10/13 11:05:53;;;;;;;12.20;7.70;;;17.40;54.20;;;;;;5048782;28;20446;-44
2021/10/13 11:08:19;;;;;;;12.00;8.23;;;17.50;55.70;;;;;;5051680;28;20446;-45
2021/10/13 11:10:45;;;;;;;11.33;8.93;;;17.50;54.00;;;;;;5050937;28;20938;-46
2021/10/13 11:13:10;;;;;;;11.33;8.80;;;17.60;53.20;;;;;;5051974;28;20200;-46
2021/10/13 11:15:39;;;;;;;14.67;10.10;;;17.70;55.10;;;;;;5051166;28;20196;-44
2021/10/13 11:18:16;;;;;;;10.27;9.07;;;17.90;53.90;;;;;;5051182;28;20228;-44
2021/10/13 11:20:43;;;;;;;12.77;7.97;;;17.90;53.30;;;;;;5051103;28;20565;-44
2021/10/13 11:23:11;;;;;;;15.07;7.90;;;18.00;52.80;;;;;;5051767;28;20419;-45
2021/10/13 11:25:37;;;;;;;6.60;5.57;;;18.00;54.20;;;;;;5049078;28;20439;-44
2021/10/13 11:28:06;;;;;;;7.07;6.00;;;18.10;53.30;;;;;;5050568;28;20463;-44
2021/10/13 11:30:50;;;;;;;7.20;6.30;;;18.30;51.90;;;;;;5049035;28;20434;-43
2021/10/13 11:33:18;;;;;;;7.10;6.30;;;18.30;50.90;;;;;;5048805;28;20443;-45
2021/10/13 11:35:44;;;;;;;6.47;5.97;;;18.20;51.00;;;;;;5049587;28;20435;-44
2021/10/13 11:38:17;;;;;;;7.23;6.03;;;18.30;50.10;;;;;;5051357;28;20845;-45
2021/10/13 11:40:43;;;;;;;8.77;5.30;;;18.40;50.90;;;;;;5049648;28;20526;-45
2021/10/13 11:43:11;;;;;;;12.93;5.97;;;18.50;51.10;;;;;;5050158;28;20920;-45
2021/10/13 11:45:50;;;;;;;6.37;4.67;;;18.50;53.20;;;;;;5049283;28;20200;-45
2021/10/13 11:48:30;;;;;;;8.13;5.03;;;18.70;51.40;;;;;;5050955;28;20435;-45
2021/10/13 11:51:00;;;;;;;7.27;5.77;;;18.80;51.10;;;;;;5050600;28;20442;-44
2021/10/13 11:53:26;;;;;;;8.27;5.70;;;18.80;50.00;;;;;;5051002;28;20682;-43
2021/10/13 11:55:52;;;;;;;3.87;3.40;;;18.80;49.90;;;;;;5049846;28;20454;-47
2021/10/13 11:58:29;;;;;;;3.23;2.87;;;18.90;50.40;;;;;;5049133;28;20487;-45
2021/10/13 12:00:56;;;;;;;3.50;2.80;;;18.90;52.30;;;;;;5048039;28;20196;-45
2021/10/13 12:03:35;;;;;;;3.70;2.87;;;18.90;50.20;;;;;;5043259;28;20461;-44
2021/10/13 12:06:02;;;;;;;45.27;34.37;;;18.90;51.70;;;;;;5049209;28;20453;-45
2021/10/13 12:08:39;;;;;;;16.87;10.70;;;19.00;50.50;;;;;;5048857;28;20463;-46
2021/10/13 12:11:09;;;;;;;5.00;4.50;;;19.00;49.50;;;;;;5050562;28;20427;-44
2021/10/13 12:13:38;;;;;;;5.10;4.27;;;19.10;48.50;;;;;;5050376;28;20435;-44
2021/10/13 12:16:09;;;;;;;5.47;4.73;;;19.30;48.50;;;;;;5048594;28;20438;-42
2021/10/13 12:18:45;;;;;;;5.33;3.90;;;19.20;47.50;;;;;;5050997;28;20973;-49
2021/10/13 12:21:16;;;;;;;3.67;3.33;;;19.20;49.00;;;;;;5046834;28;20949;-45
2021/10/13 12:23:45;;;;;;;4.30;3.43;;;19.30;48.00;;;;;;5048634;28;20478;-45
2021/10/13 12:26:20;;;;;;;4.60;3.60;;;19.50;48.90;;;;;;5048057;28;20479;-45
2021/10/13 12:28:48;;;;;;;5.10;3.40;;;19.50;48.80;;;;;;5049887;28;20437;-43
2021/10/13 12:31:19;;;;;;;3.00;2.80;;;19.60;48.70;;;;;;5049635;28;20441;-42
2021/10/13 12:33:48;;;;;;;3.53;2.97;;;19.70;48.30;;;;;;5049128;28;20798;-44
2021/10/13 12:36:16;;;;;;;3.07;2.77;;;19.70;47.50;;;;;;5049102;28;20442;-42
2021/10/13 12:38:53;;;;;;;3.93;2.83;;;19.50;47.10;;;;;;5050548;28;20500;-42
2021/10/13 12:41:20;;;;;;;4.63;3.10;;;19.20;47.10;;;;;;5050803;28;20985;-42
2021/10/13 12:43:48;;;;;;;3.90;2.13;;;19.10;47.70;;;;;;5049527;28;20455;-45